Caselton, Nevada
Current Conditions -  °F | °C
As of 12:53 PM on Tuesday 25 Nov 2014 (Local Time) from KELY Reporting Station
Scattered Clouds Scattered Clouds  
Wind Chill: 53°   Ceiling: Unl
Heat Index: 53°   Visibility: 10mi
Dew Point: 37°   Wind: 9mph
Humidity: 55%   Direction: 350°N
Pressure: 30.42"   Gusts: NA
Location:  38.2635°N, 114.484°W
Report Text: KELY 252053Z AUTO 35008KT 10SM SCT060 12/03 A3042 RMK AO2 SLP302 T01170028 56016
Loading
Personal Weather Stations






























Interactive Weather Map New forecast layout! Learn more

10-Day Weather Forecast

Advertisements
Track Severe Weather on mobile